Time;durP1;ratioP1;P1;durP2;ratioP2;P2;SDS_P1;SDS_P2;PMS_P1;PMS_P2;Temp;Humidity;BMP_temperature;BMP_pressure;BME280_temperature;BME280_humidity;BME280_pressure;Samples;Min_cycle;Max_cycle;Signal;HPM_P1;HPM_P2
2022/02/16 00:02:22;;;;;;;1.03;0.50;;;;;;;4.49;86.78;96101.25;5038056;28;20682;-70
2022/02/16 00:04:48;;;;;;;1.70;1.00;;;;;;;4.50;86.15;96097.69;5039073;28;20197;-70
2022/02/16 00:07:15;;;;;;;1.50;1.33;;;;;;;4.47;86.17;96095.38;5038579;28;20236;-70
2022/02/16 00:09:41;;;;;;;1.37;0.97;;;;;;;4.52;86.11;96088.75;5038291;28;20224;-70
2022/02/16 00:12:08;;;;;;;0.73;0.73;;;;;;;4.61;85.11;96093.09;5038697;28;20194;-70
2022/02/16 00:14:35;;;;;;;2.93;1.17;;;;;;;4.46;85.17;96091.09;5038075;28;20197;-70
2022/02/16 00:17:04;;;;;;;1.27;1.13;;;;;;;4.78;84.85;96094.13;5038487;28;20609;-70
2022/02/16 00:19:30;;;;;;;3.27;1.03;;;;;;;4.61;84.58;96094.88;5037391;28;20229;-70
2022/02/16 00:21:57;;;;;;;0.90;0.57;;;;;;;4.53;84.71;96089.56;5038524;28;20209;-70
2022/02/16 00:24:24;;;;;;;1.03;0.77;;;;;;;4.46;85.06;96085.88;5038089;28;20297;-70
2022/02/16 00:26:50;;;;;;;1.57;1.47;;;;;;;4.46;84.74;96080.69;5038290;28;20205;-71
2022/02/16 00:29:17;;;;;;;3.23;1.43;;;;;;;4.68;84.18;96078.50;5038033;28;20205;-70
2022/02/16 00:31:44;;;;;;;0.90;0.70;;;;;;;4.56;84.20;96076.25;5038852;28;20208;-70
2022/02/16 00:34:12;;;;;;;0.87;0.73;;;;;;;4.74;84.33;96069.28;5037680;28;20224;-71
2022/02/16 00:36:38;;;;;;;1.63;0.70;;;;;;;4.52;84.41;96067.03;5038449;28;20201;-71
2022/02/16 00:39:06;;;;;;;14.33;1.10;;;;;;;4.57;84.25;96068.25;5037916;28;20228;-70
2022/02/16 00:41:32;;;;;;;2.40;1.30;;;;;;;4.54;84.40;96057.28;5038166;28;20632;-71
2022/02/16 00:43:59;;;;;;;0.60;0.60;;;;;;;4.53;84.33;96058.25;5037782;28;20219;-70
2022/02/16 00:46:25;;;;;;;7.97;1.33;;;;;;;4.50;83.97;96050.72;5038058;28;20209;-70
2022/02/16 00:48:52;;;;;;;0.90;0.67;;;;;;;4.51;83.88;96063.63;5037853;28;20205;-71
2022/02/16 00:51:20;;;;;;;1.13;1.10;;;;;;;4.79;83.43;96061.84;5034655;28;20224;-71
2022/02/16 00:53:46;;;;;;;1.70;1.33;;;;;;;4.59;83.39;96050.66;5036974;28;20201;-71
2022/02/16 00:56:13;;;;;;;2.27;1.57;;;;;;;4.54;83.06;96049.47;5037858;28;20204;-71
2022/02/16 00:58:39;;;;;;;5.97;0.70;;;;;;;4.48;83.50;96044.81;5037787;28;21318;-70
2022/02/16 01:01:06;;;;;;;0.83;0.77;;;;;;;4.47;83.21;96043.19;5037702;28;20236;-70
2022/02/16 01:03:32;;;;;;;1.53;0.93;;;;;;;4.65;82.66;96054.50;5037327;28;20197;-71
2022/02/16 01:05:59;;;;;;;1.63;1.30;;;;;;;4.59;82.85;96045.44;5037579;28;20204;-71
2022/02/16 01:08:29;;;;;;;0.80;0.80;;;;;;;4.64;83.09;96043.22;5037866;28;20218;-70
2022/02/16 01:10:55;;;;;;;0.90;0.63;;;;;;;4.52;83.30;96049.59;5037366;28;21180;-70
2022/02/16 01:13:24;;;;;;;1.90;0.90;;;;;;;4.59;82.94;96055.06;5036916;28;20209;-70
2022/02/16 01:15:51;;;;;;;0.50;0.50;;;;;;;4.56;82.65;96055.38;5037923;28;20201;-71
2022/02/16 01:18:17;;;;;;;0.80;0.80;;;;;;;4.53;82.80;96053.88;5037544;28;20666;-71
2022/02/16 01:20:44;;;;;;;0.63;0.63;;;;;;;4.46;82.58;96044.16;5036774;28;20236;-71
2022/02/16 01:23:12;;;;;;;0.87;0.80;;;;;;;4.60;82.74;96046.28;5035768;28;20197;-70
2022/02/16 01:25:40;;;;;;;1.27;0.90;;;;;;;4.51;83.14;96047.97;5037216;28;20206;-70
2022/02/16 01:28:06;;;;;;;17.90;1.07;;;;;;;4.64;82.17;96042.41;5037228;28;20197;-70
2022/02/16 01:30:33;;;;;;;0.60;0.50;;;;;;;4.61;81.77;96040.91;5036527;28;20228;-70
2022/02/16 01:32:59;;;;;;;0.87;0.87;;;;;;;4.49;81.90;96031.66;5036214;28;20201;-70
2022/02/16 01:35:26;;;;;;;0.40;0.33;;;;;;;4.73;81.11;96026.69;5037627;28;20228;-70
2022/02/16 01:37:53;;;;;;;0.30;0.30;;;;;;;4.68;81.47;96028.09;5036862;28;20251;-70
2022/02/16 01:40:19;;;;;;;0.40;0.40;;;;;;;4.67;81.68;96016.84;5036941;28;20229;-70
2022/02/16 01:42:47;;;;;;;0.27;0.20;;;;;;;4.68;81.46;96013.25;5036485;28;20201;-71
2022/02/16 01:45:14;;;;;;;3.67;1.30;;;;;;;4.65;81.23;96017.97;5037005;28;20201;-71
2022/02/16 01:47:41;;;;;;;0.30;0.30;;;;;;;4.62;81.14;95998.19;5036359;28;20212;-70
2022/02/16 01:50:09;;;;;;;0.70;0.60;;;;;;;4.78;80.79;95992.31;5036685;28;20220;-70
2022/02/16 01:52:36;;;;;;;0.60;0.60;;;;;;;4.82;80.02;95990.09;5033042;28;20571;-71
2022/02/16 01:55:03;;;;;;;1.17;0.60;;;;;;;4.73;80.47;95990.16;5036506;28;20198;-71
2022/02/16 01:57:29;;;;;;;1.17;0.63;;;;;;;4.57;80.97;95984.78;5037090;28;20296;-70
2022/02/16 01:59:57;;;;;;;0.43;0.43;;;;;;;4.93;80.51;95982.03;5036714;28;20229;-71
2022/02/16 02:02:24;;;;;;;0.57;0.57;;;;;;;4.90;80.18;95977.13;5035818;28;20621;-71
2022/02/16 02:04:50;;;;;;;0.50;0.50;;;;;;;4.90;79.91;95977.13;5036710;28;20250;-71
2022/02/16 02:07:17;;;;;;;0.30;0.30;;;;;;;4.72;80.07;95974.63;5036991;28;20208;-69
2022/02/16 02:09:44;;;;;;;0.67;0.67;;;;;;;4.91;79.55;95977.94;5036392;28;20225;-70
2022/02/16 02:12:11;;;;;;;0.73;0.50;;;;;;;4.85;79.86;95975.94;5035731;28;20737;-70
2022/02/16 02:14:37;;;;;;;0.30;0.30;;;;;;;4.78;79.58;95971.44;5036933;28;20208;-71
2022/02/16 02:17:05;;;;;;;0.70;0.60;;;;;;;5.11;79.54;95967.19;5036067;28;20201;-71
2022/02/16 02:19:32;;;;;;;0.70;0.50;;;;;;;4.79;79.86;95962.66;5036429;28;20229;-71
2022/02/16 02:22:01;;;;;;;1.13;1.03;;;;;;;5.16;78.96;95961.50;5036019;28;20209;-70
2022/02/16 02:24:28;;;;;;;0.67;0.67;;;;;;;4.97;79.02;95953.84;5035749;28;20205;-69
2022/02/16 02:26:54;;;;;;;0.23;0.23;;;;;;;4.98;78.88;95953.69;5036769;28;20204;-70
2022/02/16 02:29:21;;;;;;;1.47;1.03;;;;;;;4.93;79.45;95953.31;5036219;28;20197;-70
2022/02/16 02:31:48;;;;;;;0.87;0.60;;;;;;;4.86;79.81;95951.44;5036230;28;20201;-69
2022/02/16 02:34:14;;;;;;;0.40;0.40;;;;;;;4.96;78.87;95939.97;5036005;28;20212;-69
2022/02/16 02:36:41;;;;;;;0.50;0.50;;;;;;;4.91;78.47;95937.00;5036780;28;20200;-70
2022/02/16 02:39:08;;;;;;;0.33;0.23;;;;;;;5.20;78.33;95936.72;5036045;28;20996;-69
2022/02/16 02:41:35;;;;;;;0.50;0.50;;;;;;;5.19;77.83;95935.09;5036083;28;20317;-70
2022/02/16 02:44:02;;;;;;;0.40;0.40;;;;;;;5.05;77.88;95928.63;5035823;28;20212;-70
2022/02/16 02:46:28;;;;;;;0.40;0.40;;;;;;;5.07;78.03;95926.66;5036453;28;20209;-70
2022/02/16 02:48:55;;;;;;;1.20;1.10;;;;;;;5.10;77.72;95928.97;5036150;28;20551;-72
2022/02/16 02:51:21;;;;;;;0.40;0.40;;;;;;;5.20;77.17;95919.25;5033511;28;20228;-72
2022/02/16 02:53:48;;;;;;;0.30;0.30;;;;;;;5.14;77.22;95914.66;5035997;28;20201;-72
2022/02/16 02:56:16;;;;;;;0.43;0.43;;;;;;;5.25;77.93;95916.19;5036030;28;20201;-70
2022/02/16 02:58:42;;;;;;;0.50;0.50;;;;;;;5.24;76.85;95909.34;5036237;28;20377;-72
2022/02/16 03:01:09;;;;;;;0.30;0.30;;;;;;;5.04;77.73;95918.31;5036367;28;20225;-72
2022/02/16 03:03:36;;;;;;;0.20;0.20;;;;;;;5.19;76.87;95911.59;5035536;28;20198;-72
2022/02/16 03:06:03;;;;;;;0.40;0.40;;;;;;;5.37;76.77;95913.16;5035966;28;20848;-70
2022/02/16 03:08:30;;;;;;;0.30;0.30;;;;;;;5.43;76.56;95915.19;5036711;28;20271;-70
2022/02/16 03:10:57;;;;;;;0.83;0.30;;;;;;;5.30;76.50;95901.72;5035637;28;20233;-70
2022/02/16 03:13:25;;;;;;;0.37;0.30;;;;;;;5.40;76.61;95907.66;5035121;28;20200;-70
2022/02/16 03:15:53;;;;;;;0.30;0.30;;;;;;;5.41;76.25;95901.47;5037241;28;20586;-70
2022/02/16 03:18:21;;;;;;;0.40;0.40;;;;;;;5.28;76.69;95898.41;5039986;28;20213;-70
2022/02/16 03:20:48;;;;;;;0.53;0.47;;;;;;;5.25;76.95;95892.69;5039278;28;20301;-70
2022/02/16 03:23:14;;;;;;;0.30;0.30;;;;;;;5.41;76.00;95891.00;5039458;28;20232;-70
2022/02/16 03:25:41;;;;;;;0.40;0.40;;;;;;;5.42;76.67;95892.63;5039864;28;21078;-70
2022/02/16 03:28:07;;;;;;;2.97;0.70;;;;;;;5.24;76.30;95889.25;5039366;28;20205;-69
2022/02/16 03:30:35;;;;;;;0.40;0.40;;;;;;;5.57;75.62;95883.25;5039142;28;20217;-72
2022/02/16 03:33:03;;;;;;;1.20;0.57;;;;;;;5.41;75.93;95883.19;5038468;28;20239;-70
2022/02/16 03:35:30;;;;;;;0.50;0.47;;;;;;;5.48;75.56;95877.16;5039329;28;20298;-70
2022/02/16 03:37:57;;;;;;;0.40;0.40;;;;;;;5.59;75.26;95876.09;5039650;28;20210;-70
2022/02/16 03:40:23;;;;;;;0.40;0.40;;;;;;;5.47;75.43;95872.94;5039048;28;20531;-70
2022/02/16 03:42:50;;;;;;;2.43;0.77;;;;;;;5.41;75.94;95864.88;5038062;28;20694;-70
2022/02/16 03:45:17;;;;;;;0.27;0.27;;;;;;;5.52;75.61;95862.84;5036332;28;20866;-70
2022/02/16 03:47:46;;;;;;;0.40;0.40;;;;;;;5.49;75.89;95864.94;5039583;28;20201;-70
2022/02/16 03:50:12;;;;;;;0.20;0.20;;;;;;;5.38;75.87;95861.75;5038565;28;20233;-70
2022/02/16 03:52:39;;;;;;;1.07;0.90;;;;;;;5.40;75.88;95865.00;5036514;28;20197;-70
2022/02/16 03:55:06;;;;;;;5.50;0.50;;;;;;;5.46;75.70;95860.03;5039325;28;20224;-70
2022/02/16 03:57:33;;;;;;;2.33;0.97;;;;;;;5.39;75.79;95858.97;5038799;28;20201;-70
2022/02/16 03:59:59;;;;;;;0.30;0.30;;;;;;;5.41;75.70;95862.28;5038362;28;21033;-70
2022/02/16 04:02:26;;;;;;;0.37;0.37;;;;;;;5.41;75.09;95853.59;5038329;28;20296;-70
2022/02/16 04:04:53;;;;;;;2.43;1.57;;;;;;;5.69;74.89;95855.84;5038720;28;20216;-70
2022/02/16 04:07:21;;;;;;;2.17;0.87;;;;;;;5.45;74.62;95855.75;5038610;28;20197;-70
2022/02/16 04:09:47;;;;;;;7.63;2.63;;;;;;;5.72;73.89;95847.72;5038363;28;20641;-69
2022/02/16 04:12:14;;;;;;;9.03;2.23;;;;;;;5.55;74.23;95844.22;5037856;28;20212;-69
2022/02/16 04:14:40;;;;;;;22.23;4.03;;;;;;;5.68;74.42;95849.03;5038334;28;20704;-70
2022/02/16 04:17:07;;;;;;;13.80;5.07;;;;;;;5.66;74.18;95837.88;5038860;28;20978;-70
2022/02/16 04:19:33;;;;;;;6.63;1.50;;;;;;;5.62;73.74;95828.72;5038174;28;20983;-70
2022/02/16 04:22:01;;;;;;;6.67;1.53;;;;;;;5.79;74.77;95840.91;5038154;28;20252;-70
2022/02/16 04:24:28;;;;;;;2.47;1.60;;;;;;;5.65;74.44;95828.41;5037966;28;20201;-70
2022/02/16 04:26:54;;;;;;;3.63;1.37;;;;;;;5.64;73.97;95832.00;5039082;28;20209;-70
2022/02/16 04:29:20;;;;;;;1.00;0.90;;;;;;;5.64;73.45;95826.78;5037763;28;20693;-70
2022/02/16 04:31:47;;;;;;;5.73;2.20;;;;;;;5.64;74.00;95834.63;5037667;28;20201;-70
2022/02/16 04:34:14;;;;;;;1.53;1.00;;;;;;;5.58;73.71;95822.97;5038217;28;20197;-69
2022/02/16 04:36:40;;;;;;;0.50;0.50;;;;;;;5.61;73.67;95821.84;5038571;28;20208;-72
2022/02/16 04:39:08;;;;;;;0.50;0.50;;;;;;;5.72;73.23;95818.97;5037883;28;20213;-72
2022/02/16 04:41:35;;;;;;;2.27;1.40;;;;;;;5.62;73.35;95818.28;5037833;28;20232;-73
2022/02/16 04:44:01;;;;;;;0.70;0.70;;;;;;;5.67;73.27;95821.22;5037317;28;20205;-70
2022/02/16 04:46:28;;;;;;;8.17;2.90;;;;;;;5.91;72.48;95814.31;5037735;28;20227;-70
2022/02/16 04:48:54;;;;;;;6.60;2.67;;;;;;;5.64;73.42;95811.91;5038405;28;20213;-70
2022/02/16 04:51:20;;;;;;;6.43;2.43;;;;;;;5.66;73.40;95799.50;5035217;28;20209;-70
2022/02/16 04:53:47;;;;;;;6.77;1.90;;;;;;;5.71;73.51;95802.44;5036980;28;20202;-69
2022/02/16 04:56:16;;;;;;;3.10;1.37;;;;;;;5.89;73.11;95797.97;5038221;28;20201;-70
2022/02/16 04:58:42;;;;;;;2.37;1.33;;;;;;;5.59;73.70;95787.25;5037772;28;20201;-69
2022/02/16 05:01:08;;;;;;;8.60;1.47;;;;;;;5.77;73.01;95783.56;5037135;28;20231;-69
2022/02/16 05:03:35;;;;;;;2.43;1.00;;;;;;;5.86;73.84;95789.66;5036984;28;20201;-69
2022/02/16 05:06:01;;;;;;;3.60;0.60;;;;;;;5.74;73.82;95790.88;5037856;28;20220;-69
2022/02/16 05:08:28;;;;;;;1.50;1.17;;;;;;;5.68;73.64;95788.91;5038025;28;20201;-70
2022/02/16 05:10:55;;;;;;;0.70;0.70;;;;;;;5.78;73.33;95792.22;5036568;28;20232;-70
2022/02/16 05:13:23;;;;;;;2.80;1.20;;;;;;;6.02;73.01;95793.13;5035969;28;20212;-70
2022/02/16 05:15:49;;;;;;;0.60;0.60;;;;;;;5.74;73.97;95789.09;5036799;28;20209;-70
2022/02/16 05:18:15;;;;;;;0.50;0.50;;;;;;;6.04;74.33;95798.19;5036337;28;20213;-70
2022/02/16 05:20:42;;;;;;;5.30;1.07;;;;;;;6.01;73.17;95788.03;5035913;28;20430;-69
2022/02/16 05:23:09;;;;;;;0.60;0.60;;;;;;;5.89;74.13;95786.69;5036466;28;20208;-69
2022/02/16 05:25:35;;;;;;;4.87;1.60;;;;;;;5.90;73.19;95788.34;5036768;28;20208;-69
2022/02/16 05:28:03;;;;;;;7.50;1.87;;;;;;;6.00;72.54;95791.66;5036114;28;20457;-69
2022/02/16 05:30:31;;;;;;;1.70;1.50;;;;;;;6.12;73.11;95776.31;5037087;28;20268;-69
2022/02/16 05:32:57;;;;;;;6.83;2.20;;;;;;;5.98;73.19;95780.50;5036039;28;20235;-70
2022/02/16 05:35:24;;;;;;;2.93;1.27;;;;;;;5.83;73.20;95776.88;5036335;28;20201;-70
2022/02/16 05:37:50;;;;;;;1.70;1.00;;;;;;;5.82;73.08;95772.66;5036685;28;20205;-70
2022/02/16 05:40:17;;;;;;;7.10;3.07;;;;;;;5.94;73.02;95772.16;5036778;28;20306;-70
2022/02/16 05:42:43;;;;;;;10.87;4.13;;;;;;;5.95;73.16;95770.38;5035333;28;20208;-72
2022/02/16 05:45:10;;;;;;;5.37;1.43;;;;;;;5.93;73.50;95767.09;5036156;28;20383;-69
2022/02/16 05:47:38;;;;;;;4.57;0.97;;;;;;;6.13;72.96;95757.00;5037433;28;20220;-70
2022/02/16 05:50:05;;;;;;;7.13;3.93;;;;;;;6.11;72.57;95748.50;5036621;28;20228;-70
2022/02/16 05:52:32;;;;;;;11.53;3.07;;;;;;;5.87;73.43;95745.03;5032806;28;20686;-70
2022/02/16 05:54:58;;;;;;;6.00;1.07;;;;;;;6.02;72.46;95753.06;5036758;28;20819;-69
2022/02/16 05:57:26;;;;;;;8.13;2.17;;;;;;;6.04;72.59;95752.72;5036550;28;21243;-70
2022/02/16 05:59:52;;;;;;;5.07;3.37;;;;;;;6.05;72.45;95745.72;5036152;28;20332;-69
2022/02/16 06:02:18;;;;;;;8.50;2.47;;;;;;;5.99;72.86;95748.16;5036310;28;20247;-70
2022/02/16 06:04:46;;;;;;;2.47;0.80;;;;;;;6.17;73.07;95745.25;5036047;28;20689;-70
2022/02/16 06:07:13;;;;;;;4.43;2.10;;;;;;;6.15;72.88;95749.81;5036422;28;20201;-70
2022/02/16 06:09:39;;;;;;;12.27;4.10;;;;;;;6.15;73.00;95741.16;5036348;28;20224;-70
2022/02/16 06:12:06;;;;;;;4.93;1.17;;;;;;;6.01;73.80;95736.56;5036305;28;20256;-70
2022/02/16 06:14:33;;;;;;;1.23;1.10;;;;;;;6.03;73.73;95733.78;5036205;28;21023;-70
2022/02/16 06:16:59;;;;;;;1.97;1.00;;;;;;;6.19;73.06;95729.38;5036519;28;20205;-70
2022/02/16 06:19:26;;;;;;;1.57;1.10;;;;;;;6.02;73.80;95737.38;5036330;28;20235;-70
2022/02/16 06:21:54;;;;;;;1.30;0.80;;;;;;;6.17;73.52;95721.72;5036213;28;20595;-70
2022/02/16 06:24:20;;;;;;;5.30;0.73;;;;;;;6.01;73.38;95714.81;5035812;28;20572;-70
2022/02/16 06:26:47;;;;;;;0.30;0.30;;;;;;;6.14;73.87;95705.50;5035955;28;20306;-69
2022/02/16 06:29:14;;;;;;;2.17;1.10;;;;;;;6.12;73.92;95703.06;5036290;28;20571;-70
2022/02/16 06:31:40;;;;;;;0.97;0.60;;;;;;;6.26;73.65;95698.97;5036498;28;20662;-70
2022/02/16 06:34:07;;;;;;;2.13;0.60;;;;;;;6.04;74.58;95690.97;5035456;28;20220;-69
2022/02/16 06:36:33;;;;;;;0.40;0.40;;;;;;;6.17;73.89;95690.31;5036275;28;20568;-70
2022/02/16 06:39:01;;;;;;;0.67;0.50;;;;;;;6.31;73.79;95691.44;5036381;28;20905;-70
2022/02/16 06:41:28;;;;;;;1.20;0.90;;;;;;;6.10;74.08;95691.13;5035765;28;21296;-70
2022/02/16 06:43:54;;;;;;;5.13;0.97;;;;;;;6.20;74.32;95689.97;5035437;28;20205;-70
2022/02/16 06:46:21;;;;;;;1.87;0.83;;;;;;;6.17;75.19;95685.09;5036681;28;20212;-70
2022/02/16 06:48:47;;;;;;;0.60;0.60;;;;;;;6.12;74.80;95687.38;5035908;28;20205;-69
2022/02/16 06:51:16;;;;;;;1.80;0.70;;;;;;;6.38;74.76;95684.59;5033760;28;20221;-69
2022/02/16 06:53:43;;;;;;;0.77;0.77;;;;;;;6.03;75.96;95686.72;5039803;28;20208;-70
2022/02/16 06:56:10;;;;;;;3.07;0.50;;;;;;;6.38;75.63;95674.94;5040287;28;20216;-70
2022/02/16 06:58:37;;;;;;;1.30;0.93;;;;;;;6.16;76.14;95680.84;5039924;28;20201;-69
2022/02/16 07:01:03;;;;;;;0.77;0.77;;;;;;;6.34;75.44;95680.63;5039917;28;20229;-72
2022/02/16 07:03:30;;;;;;;0.50;0.50;;;;;;;6.44;75.82;95671.66;5039944;28;20208;-70
2022/02/16 07:05:57;;;;;;;4.83;0.60;;;;;;;6.32;76.24;95670.34;5039734;28;20209;-70
2022/02/16 07:08:24;;;;;;;0.50;0.50;;;;;;;6.47;76.45;95673.13;5039891;28;20219;-69
2022/02/16 07:10:50;;;;;;;0.93;0.53;;;;;;;6.37;76.61;95675.09;5040386;28;20268;-70
2022/02/16 07:13:18;;;;;;;0.40;0.40;;;;;;;6.53;77.58;95675.91;5038951;28;20201;-70
2022/02/16 07:15:45;;;;;;;0.40;0.40;;;;;;;6.54;77.33;95682.75;5039791;28;20284;-70
2022/02/16 07:18:11;;;;;;;0.23;0.23;;;;;;;6.56;76.54;95679.97;5039929;28;20220;-71
2022/02/16 07:20:37;;;;;;;0.27;0.27;;;;;;;6.39;77.47;95688.81;5039447;28;20966;-69
2022/02/16 07:23:04;;;;;;;1.60;0.50;;;;;;;6.64;76.55;95686.00;5038744;28;20391;-70
2022/02/16 07:25:31;;;;;;;0.30;0.30;;;;;;;6.63;77.04;95680.94;5039741;28;20577;-70
2022/02/16 07:27:58;;;;;;;0.40;0.40;;;;;;;6.32;77.97;95691.28;5039719;28;20213;-69
2022/02/16 07:30:26;;;;;;;1.87;1.03;;;;;;;6.83;77.02;95688.25;5039232;28;20591;-70
2022/02/16 07:32:52;;;;;;;0.30;0.30;;;;;;;6.64;77.24;95695.66;5038492;28;20197;-69
2022/02/16 07:35:18;;;;;;;0.87;0.50;;;;;;;6.58;77.75;95683.25;5039156;28;20566;-70
2022/02/16 07:37:45;;;;;;;0.50;0.40;;;;;;;6.67;77.50;95688.31;5039372;28;20666;-70
2022/02/16 07:40:12;;;;;;;0.60;0.47;;;;;;;6.83;77.68;95681.22;5038863;28;21169;-70
2022/02/16 07:42:39;;;;;;;0.63;0.63;;;;;;;6.94;77.73;95680.88;5038179;28;20217;-71
2022/02/16 07:45:07;;;;;;;0.47;0.47;;;;;;;7.11;77.89;95676.38;5039322;28;20201;-70
2022/02/16 07:47:35;;;;;;;1.13;0.57;;;;;;;6.95;78.91;95671.19;5038636;28;20255;-70
2022/02/16 07:50:02;;;;;;;0.30;0.30;;;;;;;6.89;78.45;95679.75;5036613;28;21065;-70
2022/02/16 07:52:31;;;;;;;0.50;0.50;;;;;;;6.92;78.49;95667.09;5037158;28;20202;-71
2022/02/16 07:54:58;;;;;;;0.80;0.50;;;;;;;7.05;79.19;95669.19;5038862;28;20205;-69
2022/02/16 07:57:24;;;;;;;0.37;0.30;;;;;;;6.88;79.20;95659.78;5039465;28;20642;-70
2022/02/16 07:59:51;;;;;;;0.30;0.30;;;;;;;6.90;79.24;95652.56;5038637;28;20495;-70
2022/02/16 08:02:17;;;;;;;0.40;0.40;;;;;;;6.89;79.67;95656.19;5037593;28;20225;-70
2022/02/16 08:04:45;;;;;;;0.57;0.53;;;;;;;7.00;79.89;95659.25;5038798;28;20201;-70
2022/02/16 08:07:11;;;;;;;1.70;0.77;;;;;;;6.97;80.00;95659.56;5039805;28;20292;-70
2022/02/16 08:09:38;;;;;;;0.30;0.30;;;;;;;6.93;80.66;95662.72;5038596;28;20251;-69
2022/02/16 08:12:05;;;;;;;0.30;0.30;;;;;;;7.01;80.27;95658.25;5038485;28;20201;-70
2022/02/16 08:14:34;;;;;;;1.17;0.37;;;;;;;6.85;80.94;95641.78;5037480;28;20255;-70
2022/02/16 08:17:01;;;;;;;0.40;0.40;;;;;;;7.05;80.99;95635.97;5038507;28;20207;-70
2022/02/16 08:19:28;;;;;;;0.60;0.50;;;;;;;7.09;80.52;95646.91;5038232;28;20213;-70
2022/02/16 08:21:57;;;;;;;0.63;0.40;;;;;;;7.24;80.83;95647.84;5038704;28;20251;-71
2022/02/16 08:24:25;;;;;;;0.73;0.40;;;;;;;7.14;81.17;95647.22;5038071;28;20202;-71
2022/02/16 08:26:51;;;;;;;0.73;0.60;;;;;;;7.18;81.73;95636.25;5038191;28;20213;-71
2022/02/16 08:29:18;;;;;;;0.57;0.50;;;;;;;7.11;81.05;95637.91;5038449;28;20929;-70
2022/02/16 08:31:46;;;;;;;0.40;0.40;;;;;;;7.16;82.36;95619.06;5037990;28;20205;-71
2022/02/16 08:34:12;;;;;;;0.83;0.57;;;;;;;7.04;82.17;95617.78;5037591;28;20211;-71
2022/02/16 08:36:39;;;;;;;0.30;0.30;;;;;;;7.11;83.85;95624.00;5037734;28;20208;-70
2022/02/16 08:39:07;;;;;;;0.40;0.40;;;;;;;7.26;83.04;95627.53;5037557;28;20197;-70
2022/02/16 08:41:33;;;;;;;0.63;0.43;;;;;;;7.08;83.96;95619.13;5037524;28;20271;-70
2022/02/16 08:44:01;;;;;;;0.30;0.30;;;;;;;7.15;84.44;95613.00;5036688;28;20205;-71
2022/02/16 08:46:27;;;;;;;0.30;0.30;;;;;;;6.97;85.01;95606.38;5037574;28;20208;-71
2022/02/16 08:48:53;;;;;;;0.20;0.20;;;;;;;6.91;84.93;95602.66;5037263;28;20216;-69
2022/02/16 08:51:20;;;;;;;3.80;0.47;;;;;;;6.99;85.75;95596.56;5037422;28;20213;-69
2022/02/16 08:53:46;;;;;;;0.33;0.33;;;;;;;6.94;86.27;95602.28;5036744;28;20334;-71
2022/02/16 08:56:14;;;;;;;0.53;0.50;;;;;;;7.26;86.05;95596.09;5036947;28;20994;-70
2022/02/16 08:58:41;;;;;;;0.70;0.30;;;;;;;7.09;85.03;95597.97;5037045;28;20197;-69
2022/02/16 09:01:07;;;;;;;0.30;0.30;;;;;;;7.18;86.45;95599.56;5036846;28;20221;-70
2022/02/16 09:03:34;;;;;;;0.97;0.60;;;;;;;7.03;85.97;95603.09;5036776;28;20208;-70
2022/02/16 09:06:00;;;;;;;0.30;0.30;;;;;;;7.11;86.37;95596.00;5036926;28;20205;-70
2022/02/16 09:08:26;;;;;;;0.63;0.30;;;;;;;7.22;85.03;95589.53;5037112;28;20595;-70
2022/02/16 09:10:53;;;;;;;0.63;0.63;;;;;;;7.26;85.21;95597.69;5036960;28;20236;-70
2022/02/16 09:13:21;;;;;;;0.53;0.40;;;;;;;7.53;85.11;95591.16;5035448;28;20194;-71
2022/02/16 09:15:47;;;;;;;0.40;0.40;;;;;;;7.61;84.59;95585.84;5036470;28;20451;-70
2022/02/16 09:18:17;;;;;;;0.83;0.40;;;;;;;7.59;83.37;95578.16;5037491;28;20516;-70
2022/02/16 09:20:47;;;;;;;0.40;0.40;;;;;;;7.43;83.95;95574.84;5036620;28;20220;-70
2022/02/16 09:23:14;;;;;;;1.03;0.53;;;;;;;7.61;83.99;95575.38;5035478;28;20878;-70
2022/02/16 09:25:40;;;;;;;0.53;0.53;;;;;;;7.26;85.44;95556.78;5037220;28;20197;-71
2022/02/16 09:28:07;;;;;;;0.40;0.40;;;;;;;7.34;86.03;95563.63;5036973;28;20201;-71
2022/02/16 09:30:36;;;;;;;0.30;0.30;;;;;;;7.53;84.42;95565.75;5036008;28;20225;-70
2022/02/16 09:33:02;;;;;;;2.90;0.57;;;;;;;7.42;84.86;95555.69;5035984;28;20387;-70
2022/02/16 09:35:29;;;;;;;0.60;0.37;;;;;;;7.49;84.08;95556.59;5037117;28;20206;-71
2022/02/16 09:37:56;;;;;;;0.43;0.43;;;;;;;7.45;85.45;95544.03;5036147;28;20201;-70
2022/02/16 09:40:23;;;;;;;0.40;0.40;;;;;;;7.42;85.03;95560.94;5036095;28;20232;-70
2022/02/16 09:42:49;;;;;;;0.47;0.43;;;;;;;7.34;85.41;95531.34;5035682;28;20963;-70
2022/02/16 09:45:16;;;;;;;0.43;0.43;;;;;;;7.62;86.26;95537.69;5036231;28;20581;-70
2022/02/16 09:47:45;;;;;;;0.77;0.40;;;;;;;7.69;86.74;95547.28;5036236;28;20201;-69
2022/02/16 09:50:14;;;;;;;1.03;0.53;;;;;;;7.55;87.38;95550.69;5036250;28;20217;-69
2022/02/16 09:52:42;;;;;;;0.57;0.57;;;;;;;7.58;87.03;95533.78;5035344;28;20241;-70
2022/02/16 09:55:09;;;;;;;0.70;0.67;;;;;;;7.58;87.23;95534.59;5035427;28;20205;-70
2022/02/16 09:57:36;;;;;;;0.70;0.70;;;;;;;7.42;89.43;95539.13;5036512;28;20224;-70
2022/02/16 10:00:03;;;;;;;0.37;0.37;;;;;;;7.31;88.87;95542.16;5036439;28;20254;-71
2022/02/16 10:02:37;;;;;;;0.50;0.50;;;;;;;7.42;89.79;95536.50;5035715;28;20883;-71
2022/02/16 10:05:07;;;;;;;2.27;0.60;;;;;;;7.55;89.62;95545.44;5036581;28;20197;-70
2022/02/16 10:07:36;;;;;;;0.40;0.40;;;;;;;7.35;89.90;95541.63;5036229;28;20643;-70
2022/02/16 10:10:18;;;;;;;0.47;0.47;;;;;;;7.90;89.70;95542.19;5035859;28;20241;-70
2022/02/16 10:12:47;;;;;;;0.30;0.30;;;;;;;7.56;91.04;95541.81;5035436;28;20217;-70
2022/02/16 10:15:16;;;;;;;0.60;0.60;;;;;;;7.51;91.13;95535.47;5035733;28;20204;-70
2022/02/16 10:17:42;;;;;;;0.27;0.27;;;;;;;7.22;91.71;95527.50;5035723;28;20217;-70
2022/02/16 10:20:12;;;;;;;1.43;1.00;;;;;;;7.63;92.24;95540.13;5036169;28;20225;-70
2022/02/16 10:22:41;;;;;;;1.50;0.57;;;;;;;7.36;93.01;95540.66;5035946;28;20585;-70
2022/02/16 10:25:16;;;;;;;2.67;0.80;;;;;;;7.29;93.04;95534.50;5037537;28;20696;-70
2022/02/16 10:28:04;;;;;;;1.53;0.70;;;;;;;7.82;92.61;95534.41;5042418;28;20594;-70
2022/02/16 10:30:31;;;;;;;2.10;0.60;;;;;;;7.51;92.77;95541.53;5043187;28;20231;-70
2022/02/16 10:33:22;;;;;;;0.70;0.70;;;;;;;7.73;92.24;95539.91;5041987;28;20205;-70
2022/02/16 10:35:58;;;;;;;0.50;0.43;;;;;;;7.81;92.48;95524.09;5042053;28;20492;-69
2022/02/16 10:38:25;;;;;;;0.67;0.67;;;;;;;7.40;92.34;95526.22;5043174;28;20208;-72
2022/02/16 10:41:04;;;;;;;3.50;0.87;;;;;;;7.41;92.95;95519.97;5042188;28;20236;-70
2022/02/16 10:43:32;;;;;;;0.60;0.53;;;;;;;7.58;93.07;95523.31;5041531;28;20220;-70
2022/02/16 10:45:59;;;;;;;0.70;0.70;;;;;;;7.43;93.96;95511.94;5042223;28;20693;-70
2022/02/16 10:48:26;;;;;;;0.70;0.70;;;;;;;7.68;92.58;95503.72;5042577;28;20201;-70
2022/02/16 10:50:53;;;;;;;0.70;0.70;;;;;;;7.59;94.46;95498.72;5042280;28;20717;-70
2022/02/16 10:53:29;;;;;;;0.53;0.40;;;;;;;7.57;93.88;95509.34;5041405;28;20669;-69
2022/02/16 10:55:57;;;;;;;1.30;0.47;;;;;;;7.44;93.53;95511.75;5042262;28;20352;-71
2022/02/16 10:58:26;;;;;;;0.30;0.30;;;;;;;7.51;93.18;95509.25;5042690;28;20396;-69
2022/02/16 11:00:54;;;;;;;0.87;0.63;;;;;;;7.45;93.82;95516.00;5042207;28;20225;-71
2022/02/16 11:03:26;;;;;;;0.77;0.63;;;;;;;7.78;93.82;95503.44;5041325;28;20653;-71
2022/02/16 11:05:55;;;;;;;0.80;0.80;;;;;;;7.75;94.16;95516.91;5042020;28;20220;-70
2022/02/16 11:08:25;;;;;;;0.63;0.63;;;;;;;7.57;94.57;95519.84;5042583;28;20197;-70
2022/02/16 11:10:52;;;;;;;0.50;0.50;;;;;;;7.54;94.54;95507.09;5042461;28;20229;-70
2022/02/16 11:13:24;;;;;;;1.43;0.50;;;;;;;7.59;93.67;95499.53;5041442;28;20201;-69
2022/02/16 11:15:51;;;;;;;4.20;0.73;;;;;;;7.74;94.83;95496.94;5042244;28;20375;-70
2022/02/16 11:18:20;;;;;;;0.50;0.50;;;;;;;7.74;93.24;95470.72;5041792;28;20244;-70
2022/02/16 11:21:06;;;;;;;0.23;0.23;;;;;;;7.95;93.77;95482.13;5042094;28;20224;-70
2022/02/16 11:23:38;;;;;;;0.40;0.40;;;;;;;7.81;94.15;95477.69;5041694;28;20228;-70
2022/02/16 11:26:35;;;;;;;0.57;0.57;;;;;;;8.00;94.54;95477.97;5042073;28;20607;-70
2022/02/16 11:29:07;;;;;;;0.67;0.53;;;;;;;7.66;96.02;95469.00;5041687;28;20270;-70
2022/02/16 11:31:37;;;;;;;0.40;0.40;;;;;;;8.00;94.79;95451.75;5042059;28;20580;-70
2022/02/16 11:34:15;;;;;;;0.40;0.40;;;;;;;8.44;94.26;95449.13;5042319;28;20284;-70
2022/02/16 11:36:56;;;;;;;1.30;0.87;;;;;;;8.19;93.11;95453.06;5040121;28;20280;-71
2022/02/16 11:40:00;;;;;;;0.87;0.83;;;;;;;8.39;92.49;95441.00;5038817;28;20753;-70
2022/02/16 11:42:53;;;;;;;1.43;1.20;;;;;;;8.30;92.81;95436.84;5038712;28;20436;-71
2022/02/16 11:45:21;;;;;;;0.40;0.40;;;;;;;7.96;93.07;95449.69;5038545;28;20691;-69